Time;durP1;ratioP1;P1;durP2;ratioP2;P2;SDS_P1;SDS_P2;PMS_P1;PMS_P2;Temp;Humidity;BMP_temperature;BMP_pressure;BME280_temperature;BME280_humidity;BME280_pressure;Samples;Min_cycle;Max_cycle;Signal;HPM_P1;HPM_P2
2023/11/08 00:01:46;;;;;;;2.90;1.80;;;8.30;98.00;;;;;;5034720;28;20457;-67
2023/11/08 00:04:14;;;;;;;1.70;1.43;;;8.30;98.00;;;;;;5035032;28;20529;-66
2023/11/08 00:06:42;;;;;;;1.70;1.40;;;8.30;98.00;;;;;;5034752;28;20458;-67
2023/11/08 00:09:10;;;;;;;2.70;1.80;;;8.30;98.00;;;;;;5034658;28;20488;-67
2023/11/08 00:11:40;;;;;;;2.60;1.60;;;8.30;98.00;;;;;;5034473;28;20540;-66
2023/11/08 00:14:10;;;;;;;2.17;1.53;;;8.30;98.00;;;;;;5034381;28;20457;-67
2023/11/08 00:16:38;;;;;;;3.90;1.80;;;8.30;98.00;;;;;;5034435;28;20452;-67
2023/11/08 00:19:07;;;;;;;2.37;1.70;;;8.30;98.00;;;;;;5034389;28;20467;-66
2023/11/08 00:21:35;;;;;;;2.60;1.50;;;8.30;98.00;;;;;;5033153;28;21022;-66
2023/11/08 00:24:02;;;;;;;4.87;1.70;;;8.40;98.00;;;;;;5034198;28;20540;-68
2023/11/08 00:26:29;;;;;;;1.77;1.40;;;8.40;98.00;;;;;;5034286;28;20484;-66
2023/11/08 00:28:57;;;;;;;3.40;1.80;;;8.30;98.00;;;;;;5033923;28;20478;-67
2023/11/08 00:31:25;;;;;;;2.90;1.67;;;8.30;98.00;;;;;;5034019;28;20452;-68
2023/11/08 00:33:53;;;;;;;2.80;1.60;;;8.30;98.00;;;;;;5033933;28;20452;-67
2023/11/08 00:36:20;;;;;;;3.10;1.47;;;8.20;98.00;;;;;;5032869;28;20663;-67
2023/11/08 00:38:48;;;;;;;2.83;1.80;;;8.30;98.00;;;;;;5033898;28;20528;-66
2023/11/08 00:41:15;;;;;;;2.87;1.60;;;8.30;98.00;;;;;;5033662;28;20457;-66
2023/11/08 00:43:43;;;;;;;11.20;2.00;;;8.40;98.00;;;;;;5033640;28;20472;-67
2023/11/08 00:46:10;;;;;;;5.77;1.70;;;8.40;98.00;;;;;;5032785;28;20543;-66
2023/11/08 00:48:39;;;;;;;2.73;1.60;;;8.50;98.00;;;;;;5032447;28;21022;-67
2023/11/08 00:51:06;;;;;;;3.80;1.50;;;8.50;98.00;;;;;;5033627;28;20531;-66
2023/11/08 00:53:34;;;;;;;3.50;1.77;;;8.50;98.00;;;;;;5033579;28;20465;-66
2023/11/08 00:56:02;;;;;;;3.50;1.83;;;8.50;98.00;;;;;;5033781;28;20959;-66
2023/11/08 00:58:29;;;;;;;4.20;1.63;;;8.60;98.00;;;;;;5032647;28;20845;-66
2023/11/08 01:00:56;;;;;;;2.90;1.60;;;8.60;98.00;;;;;;5033667;28;20462;-68
2023/11/08 01:03:23;;;;;;;6.50;1.93;;;8.60;98.00;;;;;;5032365;28;20450;-67
2023/11/08 01:05:52;;;;;;;2.00;1.67;;;8.60;98.00;;;;;;5015772;28;20509;-67
2023/11/08 01:08:19;;;;;;;3.83;1.60;;;8.60;98.00;;;;;;5033434;28;20465;-67
2023/11/08 01:10:46;;;;;;;2.47;1.70;;;8.60;98.00;;;;;;5032901;28;20450;-67
2023/11/08 01:13:14;;;;;;;4.87;1.70;;;8.60;98.00;;;;;;5033326;28;20461;-67
2023/11/08 01:15:41;;;;;;;7.97;1.73;;;8.60;98.00;;;;;;5033314;28;20545;-67
2023/11/08 01:18:09;;;;;;;2.43;1.60;;;8.50;98.00;;;;;;5033183;28;20505;-67
2023/11/08 01:20:37;;;;;;;2.47;1.63;;;8.40;98.00;;;;;;5033180;28;20500;-67
2023/11/08 01:23:05;;;;;;;2.07;1.50;;;8.30;98.00;;;;;;5031876;28;20973;-67
2023/11/08 01:25:32;;;;;;;3.33;1.73;;;8.30;98.00;;;;;;5033195;28;20476;-68
2023/11/08 01:27:59;;;;;;;3.10;1.87;;;8.40;98.00;;;;;;5032872;28;20460;-66
2023/11/08 01:30:26;;;;;;;2.83;1.43;;;8.40;98.00;;;;;;5032893;28;20886;-66
2023/11/08 01:32:54;;;;;;;3.20;1.40;;;8.30;98.00;;;;;;5032906;28;20864;-67
2023/11/08 01:35:22;;;;;;;2.77;1.73;;;8.30;98.00;;;;;;5033130;28;20455;-66
2023/11/08 01:37:49;;;;;;;2.00;1.50;;;8.30;98.00;;;;;;5031662;28;20459;-66
2023/11/08 01:40:20;;;;;;;2.67;1.57;;;8.30;98.00;;;;;;5033261;28;20878;-67
2023/11/08 01:42:48;;;;;;;2.30;1.50;;;8.30;98.00;;;;;;5033156;28;20447;-66
2023/11/08 01:45:15;;;;;;;3.13;1.70;;;8.20;98.00;;;;;;5032882;28;20461;-67
2023/11/08 01:47:42;;;;;;;2.33;1.50;;;8.30;98.00;;;;;;5032885;28;20476;-68
2023/11/08 01:50:10;;;;;;;3.60;1.60;;;8.30;98.00;;;;;;5032238;28;20522;-67
2023/11/08 01:52:38;;;;;;;2.33;1.60;;;8.30;98.00;;;;;;5032403;28;20460;-67
2023/11/08 01:55:06;;;;;;;2.20;1.70;;;8.20;98.00;;;;;;5032157;28;21001;-67
2023/11/08 01:57:36;;;;;;;2.57;1.80;;;8.20;98.00;;;;;;5032166;28;20446;-67
2023/11/08 02:00:05;;;;;;;1.80;1.50;;;8.20;98.00;;;;;;5031916;28;20448;-67
2023/11/08 02:02:33;;;;;;;2.80;1.60;;;8.30;98.00;;;;;;5032357;28;20455;-66
2023/11/08 02:05:00;;;;;;;2.30;1.77;;;8.20;98.00;;;;;;5031012;28;20467;-67
2023/11/08 02:07:28;;;;;;;4.23;1.67;;;8.20;98.00;;;;;;5032322;28;20825;-66
2023/11/08 02:09:55;;;;;;;5.87;1.50;;;8.20;98.00;;;;;;5030526;28;20491;-66
2023/11/08 02:12:22;;;;;;;2.20;1.83;;;8.10;98.00;;;;;;5032089;28;20480;-68
2023/11/08 02:15:05;;;;;;;1.57;1.30;;;8.20;98.00;;;;;;5031541;28;20550;-67
2023/11/08 02:17:33;;;;;;;4.10;1.40;;;8.20;98.00;;;;;;5031899;28;20480;-66
2023/11/08 02:20:03;;;;;;;2.03;1.30;;;8.20;98.00;;;;;;5031832;28;20511;-67
2023/11/08 02:22:31;;;;;;;4.20;1.27;;;8.10;98.00;;;;;;5030562;28;20458;-66
2023/11/08 02:25:00;;;;;;;3.63;1.40;;;8.10;98.00;;;;;;5031773;28;20863;-68
2023/11/08 02:27:27;;;;;;;3.13;1.73;;;8.10;98.00;;;;;;5031827;28;20452;-67
2023/11/08 02:29:54;;;;;;;2.73;1.80;;;8.10;98.00;;;;;;5031796;28;20493;-66
2023/11/08 02:32:21;;;;;;;2.37;1.70;;;8.10;98.00;;;;;;5030536;28;20458;-68
2023/11/08 02:34:48;;;;;;;2.83;1.50;;;8.10;98.00;;;;;;5031709;28;20457;-66
2023/11/08 02:37:16;;;;;;;2.90;1.60;;;8.00;98.00;;;;;;5031538;28;20453;-66
2023/11/08 02:39:46;;;;;;;2.57;1.30;;;8.10;98.00;;;;;;5031423;28;20485;-67
2023/11/08 02:42:15;;;;;;;1.87;1.40;;;8.10;98.00;;;;;;5031460;28;20448;-66
2023/11/08 02:44:42;;;;;;;4.53;1.80;;;8.10;98.00;;;;;;5031496;28;20533;-66
2023/11/08 02:47:09;;;;;;;2.23;1.60;;;8.10;98.00;;;;;;5031656;28;20449;-66
2023/11/08 02:49:37;;;;;;;2.00;1.53;;;8.10;98.00;;;;;;5031437;28;20498;-66
2023/11/08 02:52:05;;;;;;;2.57;1.70;;;8.20;98.00;;;;;;5031795;28;20464;-67
2023/11/08 02:54:32;;;;;;;8.17;1.70;;;8.10;98.00;;;;;;5028722;28;20477;-67
2023/11/08 02:56:58;;;;;;;5.57;1.60;;;8.10;98.00;;;;;;5011641;28;20459;-67
2023/11/08 02:59:28;;;;;;;2.23;1.30;;;8.00;98.00;;;;;;5011649;28;20480;-67
2023/11/08 03:01:59;;;;;;;1.43;1.40;;;8.10;98.00;;;;;;5012533;28;20836;-67
2023/11/08 03:04:26;;;;;;;7.20;1.50;;;8.10;98.00;;;;;;5012478;28;20454;-67
2023/11/08 03:06:53;;;;;;;1.53;1.40;;;8.20;98.00;;;;;;5012200;28;20792;-68
2023/11/08 03:11:50;;;;;;;2.53;1.60;;;8.20;98.00;;;;;;5225986;22;20484;-67
2023/11/08 03:14:17;;;;;;;1.77;1.50;;;8.30;98.00;;;;;;5031416;28;20453;-67
2023/11/08 03:16:45;;;;;;;1.97;1.57;;;8.30;98.00;;;;;;5030082;28;20921;-67
2023/11/08 03:19:12;;;;;;;3.33;1.50;;;8.20;98.00;;;;;;5031200;28;20871;-67
2023/11/08 03:21:43;;;;;;;16.03;2.87;;;8.20;98.00;;;;;;5029897;28;20520;-67
2023/11/08 03:24:10;;;;;;;2.40;1.43;;;8.10;98.00;;;;;;5031131;28;20472;-66
2023/11/08 03:26:37;;;;;;;5.93;1.97;;;8.20;98.00;;;;;;5032419;28;20467;-67
2023/11/08 03:29:05;;;;;;;6.87;1.87;;;8.20;98.00;;;;;;5035314;28;20461;-66
2023/11/08 03:31:33;;;;;;;4.50;1.83;;;8.30;98.00;;;;;;5035322;28;20525;-67
2023/11/08 03:34:03;;;;;;;2.10;1.43;;;8.20;98.00;;;;;;5035356;28;20489;-67
2023/11/08 03:36:31;;;;;;;7.83;1.73;;;8.30;98.00;;;;;;5035256;28;20848;-66
2023/11/08 03:39:00;;;;;;;2.70;1.70;;;8.30;98.00;;;;;;5034851;28;20825;-66
2023/11/08 03:41:27;;;;;;;2.27;1.80;;;8.30;98.00;;;;;;5035241;28;20514;-67
2023/11/08 03:43:55;;;;;;;6.03;1.87;;;8.40;98.00;;;;;;5034738;28;20539;-66
2023/11/08 03:46:22;;;;;;;4.33;1.77;;;8.40;98.00;;;;;;5033667;28;20458;-66
2023/11/08 03:48:54;;;;;;;9.40;1.63;;;8.30;98.00;;;;;;5033713;28;20456;-67
2023/11/08 03:51:22;;;;;;;2.83;1.47;;;8.30;98.00;;;;;;5034658;28;20479;-68
2023/11/08 03:53:49;;;;;;;2.70;1.60;;;8.40;98.00;;;;;;5034396;28;20460;-67
2023/11/08 03:56:20;;;;;;;1.90;1.50;;;8.40;98.00;;;;;;5034828;28;20822;-67
2023/11/08 03:58:47;;;;;;;2.73;1.53;;;8.40;98.00;;;;;;5034612;28;20461;-68
2023/11/08 04:01:14;;;;;;;2.10;1.60;;;8.40;98.00;;;;;;5034808;28;20860;-67
2023/11/08 04:03:41;;;;;;;3.83;1.80;;;8.30;98.00;;;;;;5034494;28;20468;-66
2023/11/08 04:06:08;;;;;;;3.50;1.60;;;8.30;98.00;;;;;;5033149;28;20458;-66
2023/11/08 04:08:37;;;;;;;2.13;1.50;;;8.20;98.00;;;;;;5034434;28;20456;-66
2023/11/08 04:11:04;;;;;;;2.80;1.50;;;8.30;98.00;;;;;;5034156;28;20502;-68
2023/11/08 04:13:31;;;;;;;4.43;1.67;;;8.30;98.00;;;;;;5034254;28;20946;-67
2023/11/08 04:15:58;;;;;;;2.97;1.83;;;8.30;98.00;;;;;;5033130;28;20468;-66
2023/11/08 04:18:26;;;;;;;1.53;1.33;;;8.40;98.00;;;;;;5034275;28;20461;-67
2023/11/08 04:20:53;;;;;;;2.33;1.47;;;8.30;98.00;;;;;;5034040;28;20485;-67
2023/11/08 04:23:20;;;;;;;3.63;1.50;;;8.40;98.00;;;;;;5034288;28;20451;-68
2023/11/08 04:25:50;;;;;;;3.10;1.50;;;8.40;98.00;;;;;;5034210;28;20460;-67
2023/11/08 04:28:18;;;;;;;2.70;1.73;;;8.40;98.00;;;;;;5034017;28;20810;-67
2023/11/08 04:30:45;;;;;;;1.40;1.30;;;8.40;98.00;;;;;;5034221;28;20581;-67
2023/11/08 04:33:12;;;;;;;1.97;1.50;;;8.50;98.00;;;;;;5033950;28;20455;-66
2023/11/08 04:35:39;;;;;;;2.00;1.50;;;8.50;98.00;;;;;;5032630;28;20948;-67
2023/11/08 04:38:08;;;;;;;3.50;1.60;;;8.60;98.00;;;;;;5032577;28;20456;-67
2023/11/08 04:40:37;;;;;;;8.07;1.70;;;8.50;98.00;;;;;;5033717;28;20964;-68
2023/11/08 04:43:05;;;;;;;1.70;1.33;;;8.40;98.00;;;;;;5033663;28;20457;-66
2023/11/08 04:45:36;;;;;;;1.80;1.60;;;8.40;98.00;;;;;;5033719;28;20453;-67
2023/11/08 04:48:04;;;;;;;5.83;1.60;;;8.40;98.00;;;;;;5032466;28;20447;-67
2023/11/08 04:50:34;;;;;;;4.37;1.60;;;8.40;98.00;;;;;;5032311;28;20990;-68
2023/11/08 04:53:01;;;;;;;1.77;1.43;;;8.40;98.00;;;;;;5033731;28;20552;-68
2023/11/08 04:55:29;;;;;;;3.03;1.60;;;8.50;98.00;;;;;;5033708;28;20513;-67
2023/11/08 04:57:56;;;;;;;2.70;1.60;;;8.50;98.00;;;;;;5033414;28;20451;-67
2023/11/08 05:00:24;;;;;;;4.17;1.80;;;8.40;98.00;;;;;;5032146;28;20540;-67
2023/11/08 05:02:51;;;;;;;2.40;1.70;;;8.40;98.00;;;;;;5033518;28;20520;-67
2023/11/08 05:05:19;;;;;;;2.60;1.70;;;8.30;98.00;;;;;;5033584;28;20467;-67
2023/11/08 05:07:47;;;;;;;7.90;1.60;;;8.30;98.00;;;;;;5033727;28;20462;-66
2023/11/08 05:10:14;;;;;;;6.60;1.37;;;8.30;98.00;;;;;;5033116;28;20858;-67
2023/11/08 05:12:42;;;;;;;1.87;1.40;;;8.30;98.00;;;;;;5033328;28;20557;-67
2023/11/08 05:15:10;;;;;;;2.50;1.80;;;8.40;98.00;;;;;;5033254;28;20477;-67
2023/11/08 05:17:39;;;;;;;3.60;1.60;;;8.40;98.00;;;;;;5033334;28;20459;-67
2023/11/08 05:20:08;;;;;;;1.50;1.40;;;8.40;98.00;;;;;;5032883;28;20450;-67
2023/11/08 05:22:38;;;;;;;4.17;1.60;;;8.50;98.00;;;;;;5033382;28;20509;-67
2023/11/08 05:25:07;;;;;;;2.33;1.60;;;8.50;98.00;;;;;;5033222;28;20481;-67
2023/11/08 05:27:35;;;;;;;3.10;1.60;;;8.40;98.00;;;;;;5032908;28;20458;-68
2023/11/08 05:30:04;;;;;;;1.63;1.37;;;8.40;98.00;;;;;;5032665;28;20722;-67
2023/11/08 05:32:31;;;;;;;1.73;1.30;;;8.40;98.00;;;;;;5032986;28;20458;-67
2023/11/08 05:35:00;;;;;;;3.90;1.60;;;8.40;98.00;;;;;;5032757;28;20963;-68
2023/11/08 05:37:27;;;;;;;4.60;1.57;;;8.40;98.00;;;;;;5031576;28;20826;-68
2023/11/08 05:39:54;;;;;;;2.10;1.50;;;8.50;98.00;;;;;;5032545;28;20451;-67
2023/11/08 05:42:22;;;;;;;3.20;1.53;;;8.40;98.00;;;;;;5032736;28;20463;-68
2023/11/08 05:44:52;;;;;;;1.80;1.40;;;8.30;98.00;;;;;;5032670;28;20458;-66
2023/11/08 05:47:19;;;;;;;3.87;1.57;;;8.30;98.00;;;;;;5032614;28;20460;-67
2023/11/08 05:49:49;;;;;;;2.50;1.60;;;8.40;98.00;;;;;;5031618;28;20528;-67
2023/11/08 05:52:18;;;;;;;1.93;1.60;;;8.40;98.00;;;;;;5032587;28;20464;-67
2023/11/08 05:54:46;;;;;;;2.63;1.60;;;8.40;98.00;;;;;;5032317;28;20457;-67
2023/11/08 05:57:14;;;;;;;3.20;1.60;;;8.30;98.00;;;;;;5032635;28;20879;-67
2023/11/08 05:59:42;;;;;;;1.73;1.37;;;8.30;98.00;;;;;;5032271;28;20583;-66
2023/11/08 06:02:10;;;;;;;2.27;1.57;;;8.30;98.00;;;;;;5032275;28;20491;-67
2023/11/08 06:04:38;;;;;;;2.40;1.57;;;8.30;98.00;;;;;;5032324;28;20544;-67
2023/11/08 06:07:06;;;;;;;3.90;1.60;;;8.30;98.00;;;;;;5032234;28;20451;-67
2023/11/08 06:09:35;;;;;;;2.60;1.73;;;8.40;98.00;;;;;;5030702;28;20458;-67
2023/11/08 06:12:02;;;;;;;1.80;1.50;;;8.40;98.00;;;;;;5031907;28;20775;-66
2023/11/08 06:14:29;;;;;;;2.30;1.70;;;8.40;98.00;;;;;;5032142;28;20458;-67
2023/11/08 06:16:57;;;;;;;2.37;1.40;;;8.30;98.00;;;;;;5030715;28;20850;-68
2023/11/08 06:19:24;;;;;;;2.53;1.63;;;8.30;98.00;;;;;;5031891;28;20453;-67
2023/11/08 06:21:53;;;;;;;2.30;1.30;;;8.20;98.00;;;;;;5032163;28;20462;-67
2023/11/08 06:24:20;;;;;;;2.17;1.40;;;8.20;98.00;;;;;;5032015;28;20479;-67
2023/11/08 06:26:48;;;;;;;9.13;1.77;;;8.30;98.00;;;;;;5031722;28;20450;-67
2023/11/08 06:29:15;;;;;;;2.60;1.60;;;8.30;98.00;;;;;;5031771;28;20569;-67
2023/11/08 06:31:42;;;;;;;2.80;1.60;;;8.30;98.00;;;;;;5030314;28;21010;-68
2023/11/08 06:34:09;;;;;;;2.23;1.63;;;8.30;98.00;;;;;;5031763;28;20449;-67
2023/11/08 06:36:36;;;;;;;3.77;1.60;;;8.40;98.00;;;;;;5030290;28;20450;-66
2023/11/08 06:39:04;;;;;;;4.30;1.73;;;8.40;98.00;;;;;;5031541;28;20458;-66
2023/11/08 06:41:31;;;;;;;2.37;1.87;;;8.40;98.00;;;;;;5031841;28;20971;-67
2023/11/08 06:44:00;;;;;;;1.93;1.60;;;8.40;98.00;;;;;;5032033;28;20794;-68
2023/11/08 06:46:27;;;;;;;2.33;1.40;;;8.40;98.00;;;;;;5014324;28;20502;-67
2023/11/08 06:48:57;;;;;;;2.70;1.73;;;8.30;98.00;;;;;;5031798;28;20834;-67
2023/11/08 06:51:24;;;;;;;2.53;1.60;;;8.30;98.00;;;;;;5031684;28;20479;-67
2023/11/08 06:53:51;;;;;;;1.87;1.57;;;8.40;98.00;;;;;;5031449;28;20457;-67
2023/11/08 06:56:18;;;;;;;3.53;1.67;;;8.40;98.00;;;;;;5031655;28;20456;-66
2023/11/08 06:58:46;;;;;;;3.30;1.50;;;8.40;98.00;;;;;;5031377;28;20519;-62
2023/11/08 07:01:15;;;;;;;1.73;1.43;;;8.50;98.00;;;;;;5031488;28;20465;-62
2023/11/08 07:03:42;;;;;;;3.97;2.37;;;8.50;98.00;;;;;;5030135;28;20462;-62
2023/11/08 07:06:10;;;;;;;5.83;1.60;;;8.40;98.00;;;;;;5031367;28;20514;-62
2023/11/08 07:08:37;;;;;;;2.50;1.50;;;8.40;98.00;;;;;;5031352;28;20452;-62
2023/11/08 07:11:07;;;;;;;2.23;1.50;;;8.50;98.00;;;;;;5031041;28;20484;-62
2023/11/08 07:13:34;;;;;;;5.23;2.80;;;8.50;98.00;;;;;;5031277;28;20489;-62
2023/11/08 07:16:02;;;;;;;2.93;1.67;;;8.50;98.00;;;;;;5013586;28;20456;-62
2023/11/08 07:18:31;;;;;;;6.67;1.70;;;8.40;98.00;;;;;;5031331;28;20452;-62
2023/11/08 07:20:58;;;;;;;2.13;1.80;;;8.50;98.00;;;;;;5031079;28;20458;-62
2023/11/08 07:23:25;;;;;;;2.70;1.90;;;8.50;98.00;;;;;;5031135;28;20811;-62
2023/11/08 07:25:54;;;;;;;2.80;1.80;;;8.40;98.00;;;;;;5029949;28;20456;-63
2023/11/08 07:28:21;;;;;;;2.13;1.50;;;8.40;98.00;;;;;;5030956;28;20464;-62
2023/11/08 07:30:48;;;;;;;9.60;3.77;;;8.40;98.00;;;;;;5030838;28;20893;-63
2023/11/08 07:33:17;;;;;;;4.57;2.50;;;8.50;98.00;;;;;;5029895;28;20464;-63
2023/11/08 07:35:46;;;;;;;4.17;2.00;;;8.50;98.00;;;;;;5030956;28;20461;-63
2023/11/08 07:38:14;;;;;;;2.47;1.60;;;8.50;98.00;;;;;;5031168;28;20817;-62
2023/11/08 07:40:42;;;;;;;1.90;1.60;;;8.60;98.00;;;;;;5030931;28;20492;-62
2023/11/08 07:43:09;;;;;;;3.87;1.60;;;8.70;98.00;;;;;;5029788;28;20537;-62
2023/11/08 07:45:37;;;;;;;1.97;1.50;;;8.70;98.00;;;;;;5030924;28;20460;-62
2023/11/08 07:48:05;;;;;;;3.03;1.60;;;8.60;98.00;;;;;;5030957;28;20959;-62
2023/11/08 07:50:33;;;;;;;2.37;1.60;;;8.60;98.00;;;;;;5030777;28;20462;-62
2023/11/08 07:53:01;;;;;;;1.90;1.33;;;8.50;98.00;;;;;;5031013;28;20469;-62
2023/11/08 07:55:29;;;;;;;26.90;1.80;;;8.70;98.00;;;;;;5029441;28;20855;-62
2023/11/08 07:57:56;;;;;;;1.87;1.30;;;8.70;98.00;;;;;;5030926;28;20458;-62
2023/11/08 08:00:24;;;;;;;1.70;1.50;;;8.80;98.00;;;;;;5030746;28;20454;-63
2023/11/08 08:02:51;;;;;;;2.00;1.50;;;8.80;98.00;;;;;;5030853;28;20469;-62
2023/11/08 08:05:18;;;;;;;1.53;1.30;;;8.80;98.00;;;;;;5029578;28;20944;-62
2023/11/08 08:07:48;;;;;;;2.37;1.50;;;8.90;98.00;;;;;;5030910;28;20463;-63
2023/11/08 08:10:17;;;;;;;8.73;1.57;;;8.90;98.00;;;;;;5030793;28;20520;-62
2023/11/08 08:12:45;;;;;;;2.33;1.40;;;8.90;98.00;;;;;;5032063;28;20515;-63
2023/11/08 08:15:13;;;;;;;1.70;1.40;;;8.90;98.00;;;;;;5034416;28;20970;-62
2023/11/08 08:17:43;;;;;;;2.13;1.40;;;9.00;98.00;;;;;;5034467;28;20865;-62
2023/11/08 08:20:11;;;;;;;1.63;1.40;;;9.10;98.00;;;;;;5034558;28;20936;-62
2023/11/08 08:22:38;;;;;;;1.70;1.50;;;9.20;98.00;;;;;;5032554;28;20796;-63
2023/11/08 08:25:06;;;;;;;3.33;1.63;;;9.20;98.00;;;;;;5034496;28;20462;-63
2023/11/08 08:27:34;;;;;;;2.13;1.47;;;9.30;98.00;;;;;;5033169;28;20517;-62
2023/11/08 08:30:01;;;;;;;1.70;1.57;;;9.40;98.00;;;;;;5034198;28;20492;-62
2023/11/08 08:32:28;;;;;;;2.33;1.67;;;9.40;98.00;;;;;;5033425;28;20514;-62
2023/11/08 08:34:57;;;;;;;3.00;1.50;;;9.40;98.00;;;;;;5032671;28;20972;-62
2023/11/08 08:37:24;;;;;;;1.80;1.50;;;9.40;98.00;;;;;;5032769;28;20462;-62
2023/11/08 08:39:53;;;;;;;3.63;1.47;;;9.50;98.00;;;;;;5032547;28;20448;-63
2023/11/08 08:42:21;;;;;;;4.17;1.60;;;9.60;98.00;;;;;;5034279;28;20442;-62
2023/11/08 08:44:50;;;;;;;1.80;1.40;;;9.60;98.00;;;;;;5033556;28;20454;-61
2023/11/08 08:47:17;;;;;;;1.70;1.30;;;9.60;98.00;;;;;;5034289;28;20493;-63
2023/11/08 08:49:44;;;;;;;2.80;1.50;;;9.60;98.00;;;;;;5033551;28;20489;-62
2023/11/08 08:52:11;;;;;;;2.03;1.30;;;9.70;98.00;;;;;;5032253;28;20483;-62
2023/11/08 08:54:39;;;;;;;2.90;1.47;;;9.80;98.00;;;;;;5033050;28;20477;-62
2023/11/08 08:57:16;;;;;;;2.40;1.60;;;9.90;98.00;;;;;;5033944;28;20500;-62
2023/11/08 08:59:43;;;;;;;2.00;1.37;;;10.00;98.00;;;;;;5032570;28;20459;-63
2023/11/08 09:02:12;;;;;;;2.93;1.50;;;10.00;98.00;;;;;;5033811;28;20456;-62
2023/11/08 09:04:39;;;;;;;3.40;1.70;;;10.10;98.00;;;;;;5033797;28;20459;-63
2023/11/08 09:07:07;;;;;;;1.90;1.67;;;10.10;98.00;;;;;;5034072;28;20534;-62
2023/11/08 09:09:34;;;;;;;2.97;1.60;;;10.10;98.00;;;;;;5026256;28;20497;-62
2023/11/08 09:12:01;;;;;;;2.30;1.50;;;10.10;98.00;;;;;;5014007;28;20487;-63
2023/11/08 09:14:30;;;;;;;2.13;1.50;;;10.10;98.00;;;;;;5014137;28;20463;-62
2023/11/08 09:16:57;;;;;;;1.87;1.30;;;10.20;98.00;;;;;;5032276;28;20458;-62
2023/11/08 09:19:33;;;;;;;2.00;1.60;;;10.20;98.00;;;;;;5033940;28;20482;-62
2023/11/08 09:22:00;;;;;;;3.10;1.40;;;10.20;98.00;;;;;;5015860;28;20916;-62
2023/11/08 09:24:27;;;;;;;5.90;1.50;;;10.30;98.00;;;;;;5031457;28;20456;-63
2023/11/08 09:26:54;;;;;;;1.50;1.30;;;10.40;98.00;;;;;;5033685;28;20464;-62
2023/11/08 09:29:24;;;;;;;1.87;1.30;;;10.40;98.00;;;;;;5033523;28;20459;-62
2023/11/08 09:31:52;;;;;;;2.07;1.40;;;10.60;98.00;;;;;;5033501;28;20499;-63
2023/11/08 09:34:19;;;;;;;1.90;1.50;;;10.70;98.00;;;;;;5032383;28;20468;-63
2023/11/08 09:39:28;;;;;;;1.60;1.40;;;10.70;98.00;;;;;;5194962;22;20484;-63
2023/11/08 09:41:57;;;;;;;4.23;1.50;;;10.80;98.00;;;;;;5012141;28;20458;-63
2023/11/08 09:44:25;;;;;;;4.53;1.50;;;10.90;98.00;;;;;;5010513;28;21041;-63
2023/11/08 09:46:54;;;;;;;2.20;1.57;;;11.00;98.00;;;;;;5010813;28;20790;-63
2023/11/08 09:49:24;;;;;;;1.60;1.30;;;11.10;98.00;;;;;;5010990;28;20436;-62
2023/11/08 09:51:52;;;;;;;4.87;1.40;;;11.10;98.00;;;;;;5010607;28;20490;-63
2023/11/08 09:54:19;;;;;;;1.70;1.30;;;11.30;98.00;;;;;;5010626;28;20481;-63
2023/11/08 09:56:48;;;;;;;3.00;1.20;;;11.40;98.00;;;;;;5010463;28;20461;-63
2023/11/08 09:59:17;;;;;;;1.70;1.43;;;11.40;98.00;;;;;;5012659;28;20452;-63
2023/11/08 10:01:46;;;;;;;1.30;1.20;;;11.50;98.00;;;;;;5012411;28;20511;-63
2023/11/08 10:04:15;;;;;;;2.67;1.50;;;11.60;98.00;;;;;;5011311;28;20469;-64
2023/11/08 10:06:43;;;;;;;3.40;1.50;;;11.60;98.00;;;;;;5011362;28;20550;-63
2023/11/08 10:09:11;;;;;;;1.73;1.40;;;11.70;98.00;;;;;;5012472;28;20461;-63
2023/11/08 10:11:40;;;;;;;3.47;1.77;;;11.60;98.00;;;;;;5011748;28;20489;-62
2023/11/08 10:14:10;;;;;;;3.03;1.27;;;11.70;98.00;;;;;;5011686;28;20874;-63
2023/11/08 10:16:47;;;;;;;1.93;1.63;;;11.70;98.00;;;;;;5011834;28;20462;-63
2023/11/08 10:19:15;;;;;;;2.50;1.40;;;11.70;98.00;;;;;;5010225;28;20452;-63
2023/11/08 10:21:48;;;;;;;1.40;1.30;;;11.80;98.00;;;;;;5011686;28;20453;-63
2023/11/08 10:24:16;;;;;;;2.03;1.53;;;11.90;98.00;;;;;;5011644;28;20834;-63
2023/11/08 10:26:44;;;;;;;2.67;1.50;;;12.10;98.00;;;;;;5011361;28;20537;-63
2023/11/08 10:29:12;;;;;;;1.50;1.30;;;12.20;98.00;;;;;;5011443;28;20455;-67
2023/11/08 10:31:41;;;;;;;1.70;1.27;;;12.20;98.00;;;;;;5011458;28;20481;-68
2023/11/08 10:34:09;;;;;;;3.27;1.30;;;12.10;98.00;;;;;;5011419;28;20470;-68
2023/11/08 10:36:37;;;;;;;1.30;1.10;;;12.00;98.00;;;;;;5011157;28;20494;-69
2023/11/08 10:39:07;;;;;;;1.47;1.23;;;12.10;98.00;;;;;;4969853;28;1197891;-68
2023/11/08 10:41:34;;;;;;;2.03;1.30;;;12.10;98.00;;;;;;5012077;28;20231;-68
2023/11/08 10:44:10;;;;;;;1.40;1.30;;;12.00;98.00;;;;;;5012032;28;20471;-69
2023/11/08 10:46:41;;;;;;;1.93;1.30;;;12.10;98.00;;;;;;5012098;28;20783;-69
2023/11/08 10:49:10;;;;;;;2.43;1.73;;;12.30;98.00;;;;;;5011740;28;20470;-69
2023/11/08 10:51:40;;;;;;;1.77;1.40;;;12.50;98.00;;;;;;5011819;28;21013;-68
2023/11/08 10:54:08;;;;;;;2.57;1.20;;;12.70;98.00;;;;;;5011736;28;20616;-62
2023/11/08 10:56:37;;;;;;;1.30;1.17;;;12.70;98.00;;;;;;5010308;28;20463;-65
2023/11/08 10:59:09;;;;;;;4.67;1.30;;;12.30;98.00;;;;;;5011813;28;20447;-62
2023/11/08 11:01:41;;;;;;;2.07;1.20;;;12.10;98.00;;;;;;5011762;28;21059;-62
2023/11/08 11:04:11;;;;;;;1.63;1.20;;;12.00;98.00;;;;;;5011814;28;20463;-62
2023/11/08 11:06:40;;;;;;;1.40;1.17;;;12.10;98.00;;;;;;5010797;28;20494;-63
2023/11/08 11:09:10;;;;;;;3.13;1.40;;;12.10;98.00;;;;;;5418676;22;20632;-59
2023/11/08 11:11:39;;;;;;;1.33;1.20;;;12.30;98.00;;;;;;5010958;28;20461;-60
2023/11/08 11:14:15;;;;;;;1.90;1.20;;;12.20;98.00;;;;;;5011356;28;21015;-60
2023/11/08 11:16:53;;;;;;;2.00;1.43;;;12.20;98.00;;;;;;5010162;28;20461;-59
2023/11/08 11:19:23;;;;;;;1.80;1.27;;;12.20;98.00;;;;;;5011435;28;20457;-61
2023/11/08 11:21:54;;;;;;;1.70;1.37;;;12.10;98.00;;;;;;5011436;28;21027;-60
2023/11/08 11:24:39;;;;;;;1.80;1.30;;;12.00;98.00;;;;;;5011481;28;20482;-62
2023/11/08 11:27:08;;;;;;;3.27;1.30;;;12.10;98.00;;;;;;5011450;28;20544;-63
2023/11/08 11:29:35;;;;;;;1.47;1.10;;;12.10;98.00;;;;;;5010886;28;20952;-62
2023/11/08 11:32:06;;;;;;;1.40;1.10;;;12.50;98.00;;;;;;5010865;28;20852;-61
2023/11/08 11:34:43;;;;;;;1.63;1.23;;;13.20;98.00;;;;;;5011211;28;20453;-61
2023/11/08 11:37:13;;;;;;;1.90;1.57;;;13.80;98.00;;;;;;5011453;28;20503;-61
2023/11/08 11:39:44;;;;;;;1.20;1.10;;;14.30;98.00;;;;;;5010232;28;20510;-61
2023/11/08 11:42:16;;;;;;;1.67;1.33;;;14.00;98.00;;;;;;5011491;28;20459;-61
2023/11/08 11:44:45;;;;;;;1.40;1.30;;;13.60;98.00;;;;;;5011279;28;20499;-61
2023/11/08 11:47:16;;;;;;;1.20;1.10;;;13.30;98.00;;;;;;5011914;28;20829;-61
2023/11/08 11:49:48;;;;;;;1.90;1.20;;;13.00;98.00;;;;;;5015186;28;20478;-61
2023/11/08 11:52:17;;;;;;;1.40;1.20;;;12.90;98.00;;;;;;5014128;28;20490;-61
2023/11/08 11:54:48;;;;;;;1.53;1.20;;;12.80;98.00;;;;;;5015092;28;20516;-61
2023/11/08 11:57:16;;;;;;;1.77;1.30;;;12.80;98.00;;;;;;5015061;28;20454;-61
2023/11/08 11:59:44;;;;;;;1.67;1.43;;;12.60;98.00;;;;;;5015002;28;20552;-61
2023/11/08 12:02:11;;;;;;;1.80;1.50;;;12.60;98.00;;;;;;5015145;28;20464;-61
2023/11/08 12:04:40;;;;;;;1.30;1.30;;;12.50;98.00;;;;;;5014877;28;20465;-61
2023/11/08 12:07:09;;;;;;;1.70;1.40;;;12.40;98.00;;;;;;5014206;28;20451;-61
2023/11/08 12:09:37;;;;;;;1.60;1.27;;;12.50;98.00;;;;;;5014458;28;20511;-61
2023/11/08 12:12:05;;;;;;;1.43;1.20;;;12.50;98.00;;;;;;5014576;28;20486;-61
2023/11/08 12:14:32;;;;;;;3.13;1.70;;;12.50;98.00;;;;;;5015099;28;20456;-61
2023/11/08 12:16:59;;;;;;;1.50;1.30;;;12.50;98.00;;;;;;5014451;28;20468;-61
2023/11/08 12:19:28;;;;;;;1.73;1.30;;;12.50;98.00;;;;;;5014710;28;20486;-61
2023/11/08 12:21:57;;;;;;;1.90;1.50;;;12.50;98.00;;;;;;5014351;28;20967;-61
2023/11/08 12:24:24;;;;;;;1.63;1.40;;;12.80;98.00;;;;;;5014495;28;20867;-61
2023/11/08 12:26:51;;;;;;;1.50;1.30;;;13.30;98.00;;;;;;5014356;28;20460;-61
2023/11/08 12:29:18;;;;;;;1.50;1.30;;;14.00;98.00;;;;;;5013205;28;20545;-61
2023/11/08 12:31:46;;;;;;;1.63;1.40;;;14.70;98.00;;;;;;5014347;28;20503;-61
2023/11/08 12:34:15;;;;;;;2.27;1.70;;;15.00;98.00;;;;;;5014234;28;20488;-62
2023/11/08 12:36:42;;;;;;;1.40;1.30;;;15.70;98.00;;;;;;5014339;28;20465;-62
2023/11/08 12:39:18;;;;;;;2.93;1.30;;;16.50;98.00;;;;;;5014115;28;20458;-62
2023/11/08 12:41:46;;;;;;;1.40;1.30;;;16.90;98.00;;;;;;5014368;28;20966;-62
2023/11/08 12:44:14;;;;;;;2.27;1.40;;;16.60;98.00;;;;;;5012937;28;20454;-61
2023/11/08 12:46:55;;;;;;;1.73;1.33;;;16.50;98.00;;;;;;5014158;28;20458;-62
2023/11/08 12:49:26;;;;;;;2.00;1.30;;;17.00;98.00;;;;;;5014068;28;20454;-62
2023/11/08 12:51:53;;;;;;;2.37;1.50;;;;;;;;;;5014043;28;20458;-62
2023/11/08 12:54:23;;;;;;;1.77;1.50;;;17.80;98.00;;;;;;5013852;28;20498;-62
2023/11/08 12:56:50;;;;;;;2.07;1.60;;;18.20;98.00;;;;;;5014049;28;20479;-61
2023/11/08 12:59:19;;;;;;;1.60;1.50;;;18.30;96.40;;;;;;5013912;28;20452;-62
2023/11/08 13:01:49;;;;;;;2.40;1.50;;;18.10;97.10;;;;;;5014025;28;20982;-62
2023/11/08 13:04:18;;;;;;;1.50;1.40;;;17.40;97.90;;;;;;5014024;28;20863;-62